Time;durP1;ratioP1;P1;durP2;ratioP2;P2;SDS_P1;SDS_P2;PMS_P1;PMS_P2;Temp;Humidity;BMP_temperature;BMP_pressure;BME280_temperature;BME280_humidity;BME280_pressure;Samples;Min_cycle;Max_cycle;Signal;HPM_P1;HPM_P2
2021/01/15 00:00:04;;;;;;;7.97;3.90;;;3.00;99.90;;;;;;5052713;28;20230;-71
2021/01/15 00:02:32;;;;;;;5.15;3.50;;;3.00;99.90;;;;;;5052749;28;20207;-72
2021/01/15 00:04:58;;;;;;;8.40;4.00;;;3.10;99.90;;;;;;5052693;28;20294;-71
2021/01/15 00:07:24;;;;;;;5.35;3.70;;;3.20;99.90;;;;;;5052445;28;20220;-71
2021/01/15 00:09:50;;;;;;;9.07;4.35;;;3.20;99.90;;;;;;5052625;28;20295;-72
2021/01/15 00:12:17;;;;;;;5.32;3.60;;;3.20;99.90;;;;;;5052660;28;20203;-77
2021/01/15 00:14:43;;;;;;;4.78;3.40;;;3.20;99.90;;;;;;5053824;28;20325;-78
2021/01/15 00:17:09;;;;;;;7.82;3.58;;;3.20;99.90;;;;;;5053326;28;20669;-78
2021/01/15 00:19:37;;;;;;;7.93;3.75;;;3.20;99.90;;;;;;5053881;28;20314;-77
2021/01/15 00:22:03;;;;;;;4.38;3.30;;;3.20;99.90;;;;;;5052827;28;20781;-78
2021/01/15 00:24:29;;;;;;;6.15;3.83;;;3.20;99.90;;;;;;5052279;28;20290;-76
2021/01/15 00:26:55;;;;;;;3.42;2.50;;;3.20;99.90;;;;;;5051953;28;20298;-72
2021/01/15 00:29:22;;;;;;;6.50;3.05;;;3.20;99.90;;;;;;5052235;28;20335;-70
2021/01/15 00:31:48;;;;;;;6.55;3.35;;;3.20;99.90;;;;;;5051736;28;20297;-72
2021/01/15 00:34:16;;;;;;;7.90;3.33;;;3.30;99.90;;;;;;5052434;28;20280;-71
2021/01/15 00:36:44;;;;;;;5.05;2.65;;;3.30;99.90;;;;;;5052187;28;20631;-72
2021/01/15 00:39:14;;;;;;;3.72;2.55;;;3.30;99.90;;;;;;5052301;28;20200;-73
2021/01/15 00:41:41;;;;;;;6.88;3.15;;;3.20;99.90;;;;;;5052103;28;20677;-71
2021/01/15 00:44:09;;;;;;;5.88;3.65;;;3.20;99.90;;;;;;5052013;28;20203;-70
2021/01/15 00:46:36;;;;;;;8.00;3.20;;;3.20;99.90;;;;;;5051870;28;20249;-70
2021/01/15 00:49:04;;;;;;;5.15;2.72;;;3.10;99.90;;;;;;5051784;28;20315;-72
2021/01/15 00:51:31;;;;;;;5.20;3.15;;;3.10;99.90;;;;;;5051986;28;20249;-71
2021/01/15 00:53:58;;;;;;;4.20;3.03;;;3.10;99.90;;;;;;5051971;28;20681;-72
2021/01/15 00:56:24;;;;;;;4.00;2.80;;;3.00;99.90;;;;;;5051612;28;20207;-72
2021/01/15 00:58:51;;;;;;;4.57;2.63;;;2.90;99.90;;;;;;5052347;28;20218;-71
2021/01/15 01:01:21;;;;;;;4.68;2.72;;;2.90;99.90;;;;;;5052005;28;20290;-72
2021/01/15 01:03:48;;;;;;;4.53;2.88;;;2.80;99.90;;;;;;5052050;28;20301;-72
2021/01/15 01:06:17;;;;;;;2.45;1.92;;;2.80;99.90;;;;;;5051703;28;20214;-72
2021/01/15 01:08:44;;;;;;;4.38;2.65;;;2.80;99.90;;;;;;5055659;28;20812;-80
2021/01/15 01:11:12;;;;;;;5.03;2.47;;;2.80;99.90;;;;;;5056976;28;20638;-79
2021/01/15 01:13:39;;;;;;;4.05;2.60;;;2.70;99.90;;;;;;5053096;28;20225;-78
2021/01/15 01:16:05;;;;;;;4.10;2.17;;;2.70;99.90;;;;;;5053194;28;20211;-76
2021/01/15 01:18:33;;;;;;;3.83;2.15;;;2.60;99.90;;;;;;5052223;28;20252;-76
2021/01/15 01:21:00;;;;;;;3.92;2.28;;;2.40;99.90;;;;;;5052438;28;20701;-76
2021/01/15 01:23:28;;;;;;;2.78;2.42;;;2.40;99.90;;;;;;5052439;28;20294;-71
2021/01/15 01:25:54;;;;;;;5.07;2.22;;;2.20;99.90;;;;;;5070497;28;20198;-68
2021/01/15 01:28:22;;;;;;;4.15;2.78;;;2.10;99.90;;;;;;5073081;28;20226;-68
2021/01/15 01:30:48;;;;;;;3.42;1.95;;;2.10;99.90;;;;;;5073508;28;20229;-68
2021/01/15 01:33:15;;;;;;;3.95;2.28;;;2.10;99.90;;;;;;5073765;28;20203;-68
2021/01/15 01:35:41;;;;;;;3.97;2.10;;;1.90;99.90;;;;;;5073523;28;20560;-68
2021/01/15 01:38:07;;;;;;;5.30;2.30;;;1.80;99.90;;;;;;5073498;28;20201;-68
2021/01/15 01:40:34;;;;;;;3.38;2.45;;;1.70;99.90;;;;;;5073870;28;20222;-68
2021/01/15 01:43:00;;;;;;;5.15;2.60;;;1.60;99.90;;;;;;5074874;28;20207;-68
2021/01/15 01:45:27;;;;;;;4.30;2.00;;;1.60;99.90;;;;;;5076793;28;20603;-68
2021/01/15 01:47:56;;;;;;;5.40;2.03;;;1.50;99.90;;;;;;5077175;28;20226;-68
2021/01/15 01:50:23;;;;;;;2.33;2.13;;;1.50;99.90;;;;;;5076540;28;20313;-68
2021/01/15 01:52:50;;;;;;;3.47;1.70;;;1.60;99.90;;;;;;5077558;28;20203;-68
2021/01/15 01:55:18;;;;;;;3.63;1.58;;;1.60;99.90;;;;;;5076639;28;20289;-68
2021/01/15 01:57:45;;;;;;;2.45;1.63;;;1.60;99.90;;;;;;5076483;28;20198;-67
2021/01/15 02:00:13;;;;;;;3.08;2.20;;;1.70;99.90;;;;;;5077301;28;20222;-67
2021/01/15 02:02:40;;;;;;;4.78;2.28;;;1.90;99.90;;;;;;5077322;28;20202;-67
2021/01/15 02:05:08;;;;;;;3.50;2.50;;;2.00;99.90;;;;;;5076847;28;20649;-67
2021/01/15 02:07:35;;;;;;;3.65;2.38;;;2.00;99.90;;;;;;5076635;28;20248;-67
2021/01/15 02:10:06;;;;;;;2.70;1.80;;;2.00;99.90;;;;;;5076724;28;20222;-68
2021/01/15 02:12:39;;;;;;;3.17;1.95;;;1.80;99.90;;;;;;5076710;28;20210;-67
2021/01/15 02:15:12;;;;;;;2.78;2.45;;;1.90;99.90;;;;;;5076922;28;20586;-67
2021/01/15 02:17:46;;;;;;;3.28;1.75;;;1.90;99.90;;;;;;5076804;28;20199;-67
2021/01/15 02:20:50;;;;;;;2.15;1.80;;;1.90;99.90;;;;;;5076775;28;20310;-67
2021/01/15 02:23:23;;;;;;;2.20;1.90;;;1.90;99.90;;;;;;5076937;28;20198;-67
2021/01/15 02:26:34;;;;;;;3.30;1.63;;;1.80;99.90;;;;;;5076327;28;20256;-67
2021/01/15 02:29:11;;;;;;;2.05;1.70;;;1.60;99.90;;;;;;5076762;28;20572;-68
2021/01/15 02:32:13;;;;;;;3.85;2.08;;;1.40;99.90;;;;;;5076255;28;20667;-67
2021/01/15 02:35:03;;;;;;;6.53;2.30;;;1.30;99.90;;;;;;5076596;28;20506;-67
2021/01/15 02:37:38;;;;;;;5.05;2.05;;;1.20;99.90;;;;;;5076065;28;20328;-67
2021/01/15 02:40:10;;;;;;;2.60;1.30;;;1.30;99.90;;;;;;5076177;28;20233;-67
2021/01/15 02:42:39;;;;;;;4.00;1.33;;;1.50;99.90;;;;;;5076648;28;20274;-67
2021/01/15 02:45:09;;;;;;;2.30;1.77;;;1.70;99.90;;;;;;5075507;28;20203;-68
2021/01/15 02:47:46;;;;;;;5.43;1.80;;;1.80;99.90;;;;;;5075685;28;20233;-68
2021/01/15 02:50:13;;;;;;;2.42;1.65;;;1.90;99.90;;;;;;5075736;28;20229;-67
2021/01/15 02:52:42;;;;;;;3.70;2.35;;;2.00;99.90;;;;;;5075688;28;20207;-67
2021/01/15 02:55:09;;;;;;;3.67;2.25;;;2.00;99.90;;;;;;5075624;28;20203;-68
2021/01/15 02:57:36;;;;;;;4.30;1.75;;;2.10;99.90;;;;;;5075855;28;20229;-67
2021/01/15 03:00:04;;;;;;;2.97;2.65;;;2.20;99.90;;;;;;5076368;28;20295;-67
2021/01/15 03:02:38;;;;;;;5.03;1.83;;;2.10;99.90;;;;;;5076604;28;20198;-67
2021/01/15 03:05:10;;;;;;;3.40;2.55;;;2.20;99.90;;;;;;5076319;28;20594;-68
2021/01/15 03:07:39;;;;;;;2.00;1.85;;;2.20;99.90;;;;;;5076329;28;20313;-68
2021/01/15 03:10:07;;;;;;;3.60;2.20;;;2.30;99.90;;;;;;5075577;28;20219;-68
2021/01/15 03:12:37;;;;;;;2.35;2.10;;;2.20;99.90;;;;;;5075928;28;20207;-68
2021/01/15 03:15:06;;;;;;;3.60;2.20;;;2.10;99.90;;;;;;5076442;28;20535;-68
2021/01/15 03:17:35;;;;;;;2.08;1.75;;;2.10;99.90;;;;;;5076278;28;20228;-68
2021/01/15 03:20:03;;;;;;;2.58;1.60;;;2.10;99.90;;;;;;5076660;28;20280;-68
2021/01/15 03:22:32;;;;;;;4.00;2.25;;;2.20;99.90;;;;;;5076646;28;20691;-68
2021/01/15 03:25:00;;;;;;;1.80;1.60;;;2.20;99.90;;;;;;5076170;28;20244;-67
2021/01/15 03:27:41;;;;;;;2.20;1.88;;;2.20;99.90;;;;;;5075397;28;20248;-68
2021/01/15 03:30:09;;;;;;;2.70;1.60;;;2.00;99.90;;;;;;5075190;28;20309;-68
2021/01/15 03:32:35;;;;;;;3.65;2.13;;;1.80;99.90;;;;;;5075465;28;20207;-68
2021/01/15 03:35:01;;;;;;;3.90;1.73;;;1.60;99.90;;;;;;5075503;28;20225;-68
2021/01/15 03:37:28;;;;;;;2.40;2.05;;;1.70;99.90;;;;;;5075696;28;20522;-68
2021/01/15 03:39:54;;;;;;;2.80;1.95;;;1.70;99.90;;;;;;5074700;28;20403;-68
2021/01/15 03:42:21;;;;;;;2.88;1.75;;;1.80;99.90;;;;;;5075544;28;20213;-67
2021/01/15 03:44:48;;;;;;;3.63;1.90;;;1.80;99.90;;;;;;5075049;28;20331;-68
2021/01/15 03:47:14;;;;;;;3.97;1.90;;;1.80;99.90;;;;;;5074615;28;20207;-68
2021/01/15 03:49:40;;;;;;;4.22;1.92;;;1.90;99.90;;;;;;5074703;28;20223;-67
2021/01/15 03:52:10;;;;;;;3.92;2.03;;;1.80;99.90;;;;;;5074775;28;20732;-68
2021/01/15 03:54:36;;;;;;;5.60;2.35;;;1.80;99.90;;;;;;5074779;28;20540;-68
2021/01/15 03:57:03;;;;;;;2.95;1.50;;;1.60;99.90;;;;;;5074789;28;20293;-67
2021/01/15 03:59:30;;;;;;;1.92;1.40;;;1.40;99.90;;;;;;5074924;28;20215;-68
2021/01/15 04:01:56;;;;;;;5.78;1.08;;;1.50;99.90;;;;;;5075525;28;20198;-68
2021/01/15 04:04:23;;;;;;;3.78;1.90;;;1.60;99.90;;;;;;5074267;28;20207;-68
2021/01/15 04:06:49;;;;;;;3.22;1.52;;;1.70;99.90;;;;;;5073734;28;20650;-68
2021/01/15 04:09:15;;;;;;;4.82;1.98;;;1.60;99.90;;;;;;5074522;28;20231;-67
2021/01/15 04:11:41;;;;;;;3.70;2.25;;;1.70;99.90;;;;;;5074818;28;20210;-68
2021/01/15 04:14:08;;;;;;;4.78;1.80;;;1.70;99.90;;;;;;5074438;28;20238;-68
2021/01/15 04:16:35;;;;;;;2.65;1.63;;;1.70;99.90;;;;;;5073948;28;20289;-68
2021/01/15 04:19:01;;;;;;;2.25;2.05;;;1.60;99.90;;;;;;5074084;28;20293;-68
2021/01/15 04:21:28;;;;;;;3.00;1.70;;;1.50;99.90;;;;;;5074338;28;20202;-67
2021/01/15 04:23:54;;;;;;;5.15;1.80;;;1.30;99.90;;;;;;5074165;28;20309;-67
2021/01/15 04:26:20;;;;;;;2.50;2.15;;;1.20;99.90;;;;;;5073812;28;20359;-67
2021/01/15 04:28:49;;;;;;;4.80;2.78;;;1.30;99.90;;;;;;5074301;28;20233;-67
2021/01/15 04:31:16;;;;;;;3.95;2.13;;;1.20;99.90;;;;;;5074219;28;20292;-68
2021/01/15 04:33:44;;;;;;;4.38;2.10;;;1.10;99.90;;;;;;5073822;28;20198;-67
2021/01/15 04:36:14;;;;;;;3.08;1.67;;;1.00;99.90;;;;;;5074003;28;20571;-67
2021/01/15 04:38:41;;;;;;;2.67;1.90;;;0.80;99.90;;;;;;5073911;28;20195;-67
2021/01/15 04:41:08;;;;;;;3.60;1.95;;;0.70;99.90;;;;;;5073938;28;20236;-67
2021/01/15 04:43:36;;;;;;;5.15;2.45;;;0.70;99.90;;;;;;5074125;28;20207;-68
2021/01/15 04:46:03;;;;;;;3.75;2.45;;;0.80;99.90;;;;;;5073422;28;20203;-68
2021/01/15 04:48:32;;;;;;;2.45;2.22;;;0.90;99.90;;;;;;5073841;28;20229;-67
2021/01/15 04:51:01;;;;;;;4.78;2.40;;;1.10;99.90;;;;;;5073967;28;20692;-68
2021/01/15 04:53:30;;;;;;;3.50;2.10;;;1.20;99.90;;;;;;5073883;28;20207;-68
2021/01/15 04:55:59;;;;;;;5.65;2.35;;;1.30;99.90;;;;;;5073789;28;20207;-68
2021/01/15 04:58:26;;;;;;;2.60;2.00;;;1.30;99.90;;;;;;5073612;28;20294;-68
2021/01/15 05:00:58;;;;;;;4.25;2.45;;;1.50;99.90;;;;;;5073562;28;20234;-67
2021/01/15 05:03:24;;;;;;;4.93;2.38;;;1.50;99.90;;;;;;5073642;28;20203;-68
2021/01/15 05:06:00;;;;;;;4.05;2.80;;;1.50;99.90;;;;;;5073472;28;20205;-68
2021/01/15 05:08:28;;;;;;;3.88;2.50;;;1.40;99.90;;;;;;5073841;28;20218;-67
2021/01/15 05:10:55;;;;;;;3.72;2.45;;;1.30;99.90;;;;;;5073254;28;20272;-68
2021/01/15 05:13:22;;;;;;;5.05;2.30;;;1.10;99.90;;;;;;5073586;28;20203;-68
2021/01/15 05:15:50;;;;;;;3.88;2.08;;;0.80;99.90;;;;;;5073393;28;20226;-68
2021/01/15 05:18:18;;;;;;;3.72;2.80;;;0.70;99.90;;;;;;5077568;28;20585;-68
2021/01/15 05:20:45;;;;;;;5.65;2.40;;;0.50;99.90;;;;;;5077506;28;20309;-68
2021/01/15 05:23:13;;;;;;;4.60;2.95;;;0.30;99.90;;;;;;5077713;28;20293;-68
2021/01/15 05:25:43;;;;;;;4.65;2.65;;;0.10;99.90;;;;;;5077265;28;20205;-68
2021/01/15 05:28:09;;;;;;;3.75;2.38;;;0.00;99.90;;;;;;5077162;28;20694;-67
2021/01/15 05:30:38;;;;;;;4.10;2.22;;;-0.10;99.90;;;;;;5077768;28;20306;-67
2021/01/15 05:33:12;;;;;;;4.90;2.47;;;-0.10;99.90;;;;;;5077562;28;20211;-67
2021/01/15 05:35:44;;;;;;;3.00;1.98;;;-0.10;99.90;;;;;;5077442;28;20213;-67
2021/01/15 05:38:14;;;;;;;3.65;1.88;;;-0.20;99.90;;;;;;5077093;28;20202;-68
2021/01/15 05:40:43;;;;;;;3.40;2.47;;;-0.20;99.90;;;;;;5077289;28;20278;-67
2021/01/15 05:43:28;;;;;;;3.08;2.05;;;-0.10;99.90;;;;;;5077163;28;20199;-67
2021/01/15 05:46:09;;;;;;;5.75;2.00;;;0.00;99.90;;;;;;5076976;28;20256;-68
2021/01/15 05:48:36;;;;;;;4.93;2.60;;;-0.10;99.90;;;;;;5076908;28;20233;-68
2021/01/15 05:51:03;;;;;;;3.67;2.35;;;-0.10;99.90;;;;;;5077094;28;20352;-67
2021/01/15 05:53:41;;;;;;;8.25;2.75;;;-0.20;99.90;;;;;;5077034;28;20209;-67
2021/01/15 05:56:07;;;;;;;6.63;1.90;;;-0.20;99.90;;;;;;5076682;28;20207;-68
2021/01/15 05:58:34;;;;;;;6.18;2.35;;;-0.10;99.90;;;;;;5077004;28;20252;-67
2021/01/15 06:01:00;;;;;;;4.43;2.30;;;-0.20;99.90;;;;;;5076737;28;20223;-67
2021/01/15 06:03:27;;;;;;;5.75;2.63;;;-0.20;99.90;;;;;;5076551;28;20671;-68
2021/01/15 06:05:54;;;;;;;4.00;1.67;;;0.00;99.90;;;;;;5076474;28;20626;-67
2021/01/15 06:08:21;;;;;;;4.80;2.53;;;0.20;99.90;;;;;;5076749;28;20218;-68
2021/01/15 06:10:49;;;;;;;3.63;2.08;;;0.40;99.90;;;;;;5076048;28;20222;-67
2021/01/15 06:13:37;;;;;;;3.45;2.83;;;0.50;99.90;;;;;;5076866;28;20229;-67
2021/01/15 06:16:04;;;;;;;2.50;2.22;;;0.60;99.90;;;;;;5076194;28;20206;-68
2021/01/15 06:18:30;;;;;;;3.53;2.15;;;0.70;99.90;;;;;;5076174;28;20213;-67
2021/01/15 06:21:07;;;;;;;5.07;2.65;;;0.80;99.90;;;;;;5077032;28;20609;-67
2021/01/15 06:23:40;;;;;;;2.90;2.60;;;0.80;99.90;;;;;;5076652;28;20202;-67
2021/01/15 06:26:09;;;;;;;4.03;2.20;;;0.90;99.90;;;;;;5076080;28;20206;-68
2021/01/15 06:28:36;;;;;;;6.95;2.22;;;0.90;99.90;;;;;;5075284;28;20231;-67
2021/01/15 06:31:05;;;;;;;5.38;2.65;;;0.80;99.90;;;;;;5076534;28;20309;-68
2021/01/15 06:33:32;;;;;;;5.20;2.72;;;0.90;99.90;;;;;;5076674;28;20214;-68
2021/01/15 06:35:58;;;;;;;4.13;2.60;;;1.00;99.90;;;;;;5075910;28;20290;-68
2021/01/15 06:38:29;;;;;;;4.53;2.65;;;1.00;99.90;;;;;;5075807;28;20203;-68
2021/01/15 06:40:56;;;;;;;6.10;3.10;;;0.90;99.90;;;;;;5076271;28;20312;-68
2021/01/15 06:43:27;;;;;;;4.90;2.33;;;0.90;99.90;;;;;;5076101;28;20259;-67
2021/01/15 06:45:55;;;;;;;5.57;2.63;;;1.00;99.90;;;;;;5076003;28;20207;-68
2021/01/15 06:48:23;;;;;;;3.83;3.22;;;0.90;99.90;;;;;;5076086;28;20309;-68
2021/01/15 06:50:51;;;;;;;4.53;2.40;;;1.00;99.90;;;;;;5075756;28;20250;-68
2021/01/15 06:53:23;;;;;;;4.53;3.05;;;1.00;99.90;;;;;;5075550;28;20286;-67
2021/01/15 06:55:51;;;;;;;8.73;2.70;;;1.00;99.90;;;;;;5075484;28;20608;-67
2021/01/15 06:58:20;;;;;;;5.28;2.17;;;0.90;99.90;;;;;;5075877;28;20289;-67
2021/01/15 07:01:19;;;;;;;3.38;2.15;;;0.90;99.90;;;;;;5075438;28;20226;-68
2021/01/15 07:04:23;;;;;;;6.70;2.72;;;1.00;99.90;;;;;;5075672;28;20211;-68
2021/01/15 07:07:11;;;;;;;5.70;2.50;;;1.00;99.90;;;;;;5075233;28;20213;-68
2021/01/15 07:09:40;;;;;;;6.75;3.17;;;0.90;99.90;;;;;;5075229;28;20227;-68
2021/01/15 07:12:10;;;;;;;5.72;2.72;;;1.00;99.90;;;;;;5075260;28;20211;-68
2021/01/15 07:14:48;;;;;;;3.13;2.42;;;1.00;99.90;;;;;;5075385;28;20265;-68
2021/01/15 07:17:17;;;;;;;5.60;2.65;;;1.00;99.90;;;;;;5075459;28;20293;-67
2021/01/15 07:19:45;;;;;;;6.40;2.40;;;0.90;99.90;;;;;;5075303;28;20215;-67
2021/01/15 07:22:12;;;;;;;2.80;2.35;;;0.90;99.90;;;;;;5075185;28;20206;-68
2021/01/15 07:24:40;;;;;;;4.75;2.40;;;0.90;99.90;;;;;;5075175;28;20199;-68
2021/01/15 07:27:09;;;;;;;6.05;2.35;;;0.90;99.90;;;;;;5074995;28;20264;-68
2021/01/15 07:29:43;;;;;;;4.72;2.58;;;0.90;99.90;;;;;;5074725;28;20252;-68
2021/01/15 07:32:17;;;;;;;8.73;2.70;;;0.90;99.90;;;;;;5075676;28;20191;-68
2021/01/15 07:34:46;;;;;;;5.57;2.67;;;0.90;99.90;;;;;;5074887;28;20203;-67
2021/01/15 07:37:25;;;;;;;4.25;1.85;;;0.90;99.90;;;;;;5074964;28;20203;-68
2021/01/15 07:40:15;;;;;;;6.45;2.60;;;0.90;99.90;;;;;;5074192;28;20225;-67
2021/01/15 07:42:52;;;;;;;3.30;2.10;;;0.70;99.90;;;;;;5071627;28;20199;-68
2021/01/15 07:45:58;;;;;;;3.38;2.15;;;0.70;99.90;;;;;;5074563;28;20210;-67
2021/01/15 07:48:26;;;;;;;6.28;2.58;;;0.70;99.90;;;;;;5074752;28;20223;-67
2021/01/15 07:50:52;;;;;;;3.72;2.10;;;0.70;99.90;;;;;;5075152;28;20233;-67
2021/01/15 07:53:24;;;;;;;6.88;2.70;;;0.70;99.90;;;;;;5075296;28;20202;-67
2021/01/15 07:55:52;;;;;;;5.90;2.72;;;0.80;99.90;;;;;;5074054;28;20209;-67
2021/01/15 07:58:19;;;;;;;3.03;2.60;;;0.80;99.90;;;;;;5074557;28;20202;-67
2021/01/15 08:00:46;;;;;;;5.03;2.92;;;0.90;99.90;;;;;;5074748;28;20223;-67
2021/01/15 08:03:13;;;;;;;5.05;3.42;;;1.00;99.90;;;;;;5074613;28;20213;-67
2021/01/15 08:05:42;;;;;;;5.93;2.97;;;1.10;99.90;;;;;;5074397;28;20645;-68
2021/01/15 08:08:16;;;;;;;8.60;3.38;;;1.00;99.90;;;;;;5074070;28;20225;-67
2021/01/15 08:10:45;;;;;;;4.30;2.30;;;1.10;99.90;;;;;;5074152;28;20221;-67
2021/01/15 08:13:28;;;;;;;2.88;2.67;;;1.10;99.90;;;;;;5074438;28;20199;-67
2021/01/15 08:15:55;;;;;;;8.48;3.67;;;1.10;99.90;;;;;;5074222;28;20206;-67
2021/01/15 08:18:22;;;;;;;4.35;2.80;;;1.20;99.90;;;;;;5073761;28;20195;-68
2021/01/15 08:20:52;;;;;;;5.60;3.55;;;1.10;99.90;;;;;;5074210;28;20249;-68
2021/01/15 08:23:23;;;;;;;5.90;3.47;;;1.00;99.90;;;;;;5073959;28;20228;-68
2021/01/15 08:25:52;;;;;;;8.23;3.30;;;1.00;99.90;;;;;;5073682;28;20285;-68
2021/01/15 08:28:18;;;;;;;9.85;3.40;;;1.00;99.90;;;;;;5073622;28;20718;-68
2021/01/15 08:31:02;;;;;;;9.82;4.82;;;0.90;99.90;;;;;;5074246;28;20313;-68
2021/01/15 08:33:29;;;;;;;5.03;3.15;;;1.10;99.90;;;;;;5073773;28;20649;-68
2021/01/15 08:35:58;;;;;;;9.43;4.07;;;1.20;99.90;;;;;;5073710;28;20556;-68
2021/01/15 08:38:32;;;;;;;7.78;3.92;;;1.30;99.90;;;;;;5074054;28;20201;-67
2021/01/15 08:41:00;;;;;;;6.82;3.55;;;1.30;99.90;;;;;;5074153;28;20252;-67
2021/01/15 08:43:27;;;;;;;7.70;3.47;;;1.40;99.90;;;;;;5073764;28;20317;-67
2021/01/15 08:45:54;;;;;;;7.45;4.55;;;1.30;99.90;;;;;;5073581;28;20627;-68
2021/01/15 08:48:21;;;;;;;11.45;4.75;;;1.30;99.90;;;;;;5073586;28;20684;-67
2021/01/15 08:50:49;;;;;;;11.00;4.28;;;1.20;99.90;;;;;;5074112;28;20576;-68
2021/01/15 08:53:23;;;;;;;5.65;3.78;;;1.00;99.90;;;;;;5074035;28;20213;-70
2021/01/15 08:55:54;;;;;;;7.80;3.83;;;0.70;99.90;;;;;;5066871;28;20605;-72
2021/01/15 08:58:21;;;;;;;6.07;3.67;;;0.50;99.90;;;;;;5063119;28;20196;-72
2021/01/15 09:00:47;;;;;;;6.88;3.97;;;0.30;99.90;;;;;;5064431;28;20222;-73
2021/01/15 09:03:18;;;;;;;9.13;4.20;;;0.30;99.90;;;;;;5062627;28;20568;-73
2021/01/15 09:05:47;;;;;;;7.22;3.70;;;0.30;99.90;;;;;;5061559;28;20206;-73
2021/01/15 09:08:17;;;;;;;6.63;2.97;;;0.30;99.90;;;;;;5061220;28;20237;-73
2021/01/15 09:10:48;;;;;;;6.97;3.33;;;0.20;99.90;;;;;;5064078;28;20223;-70
2021/01/15 09:13:16;;;;;;;7.57;4.25;;;0.10;99.90;;;;;;5064652;28;20206;-72
2021/01/15 09:15:42;;;;;;;6.03;3.50;;;0.10;99.90;;;;;;5074246;28;20198;-69
2021/01/15 09:18:09;;;;;;;11.13;4.60;;;0.00;99.90;;;;;;5074133;28;20206;-70
2021/01/15 09:20:36;;;;;;;6.35;4.10;;;0.20;99.90;;;;;;5073539;28;20223;-69
2021/01/15 09:23:02;;;;;;;7.55;4.38;;;0.30;99.90;;;;;;5073489;28;20293;-69
2021/01/15 09:25:29;;;;;;;6.30;3.75;;;0.30;99.90;;;;;;5073526;28;20245;-69
2021/01/15 09:27:56;;;;;;;7.68;3.45;;;0.30;99.90;;;;;;5073455;28;20214;-69
2021/01/15 09:30:23;;;;;;;6.95;3.22;;;0.20;99.90;;;;;;5073373;28;20314;-69
2021/01/15 09:32:49;;;;;;;7.32;3.50;;;0.30;99.90;;;;;;5073811;28;20202;-69
2021/01/15 09:35:17;;;;;;;5.88;2.80;;;0.20;99.90;;;;;;5074043;28;20262;-69
2021/01/15 09:37:44;;;;;;;8.13;4.28;;;0.10;99.90;;;;;;5073264;28;20211;-69
2021/01/15 09:40:11;;;;;;;5.97;3.50;;;0.10;99.90;;;;;;5073834;28;20626;-69
2021/01/15 09:42:37;;;;;;;7.30;4.30;;;0.10;99.90;;;;;;5073664;28;20290;-69
2021/01/15 09:45:06;;;;;;;6.32;4.22;;;0.20;99.90;;;;;;5073286;28;20293;-69
2021/01/15 09:47:34;;;;;;;7.55;3.65;;;0.40;99.90;;;;;;5073524;28;20205;-69
2021/01/15 09:50:00;;;;;;;5.18;3.75;;;0.50;99.90;;;;;;5073037;28;20234;-69
2021/01/15 09:52:26;;;;;;;8.27;3.97;;;0.60;99.90;;;;;;5073508;28;20614;-69
2021/01/15 09:54:53;;;;;;;4.90;3.45;;;0.80;99.90;;;;;;5073720;28;20286;-69
2021/01/15 09:57:19;;;;;;;8.35;4.25;;;0.90;99.90;;;;;;5073752;28;20241;-69
2021/01/15 09:59:45;;;;;;;11.75;5.40;;;0.90;99.90;;;;;;5073580;28;20306;-69
2021/01/15 10:02:13;;;;;;;10.23;3.45;;;0.80;99.90;;;;;;5074237;28;20298;-70
2021/01/15 10:04:39;;;;;;;7.85;4.35;;;0.80;99.90;;;;;;5075620;28;20289;-70
2021/01/15 10:07:05;;;;;;;10.85;5.40;;;0.80;99.90;;;;;;5076453;28;20294;-69
2021/01/15 10:09:31;;;;;;;9.77;4.85;;;0.80;99.90;;;;;;5076681;28;20230;-69
2021/01/15 10:11:58;;;;;;;7.65;3.38;;;0.80;99.90;;;;;;5077119;28;20202;-69
2021/01/15 10:14:25;;;;;;;9.63;4.57;;;0.90;99.90;;;;;;5077046;28;20310;-69
2021/01/15 10:16:52;;;;;;;5.97;4.00;;;1.00;99.90;;;;;;5076404;28;20203;-69
2021/01/15 10:19:20;;;;;;;6.38;3.72;;;1.00;99.90;;;;;;5076792;28;20329;-69
2021/01/15 10:21:47;;;;;;;12.98;5.50;;;1.00;99.90;;;;;;5077253;28;20251;-69
2021/01/15 10:24:15;;;;;;;15.88;5.13;;;1.00;99.90;;;;;;5077067;28;20293;-69
2021/01/15 10:26:42;;;;;;;9.80;5.18;;;1.00;99.90;;;;;;5076179;28;20775;-69
2021/01/15 10:29:10;;;;;;;7.30;4.85;;;1.10;99.90;;;;;;5076836;28;20223;-69
2021/01/15 10:31:42;;;;;;;11.63;5.53;;;1.00;99.90;;;;;;5077019;28;20267;-69
2021/01/15 10:34:09;;;;;;;12.80;5.78;;;0.90;99.90;;;;;;5076640;28;20199;-69
2021/01/15 10:36:36;;;;;;;9.70;4.35;;;0.70;99.90;;;;;;5076051;28;20213;-69
2021/01/15 10:39:03;;;;;;;8.73;4.70;;;0.70;99.90;;;;;;5076323;28;20627;-69
2021/01/15 10:41:33;;;;;;;6.90;4.55;;;0.60;99.90;;;;;;5076143;28;20203;-69
2021/01/15 10:44:01;;;;;;;11.25;5.13;;;0.70;99.90;;;;;;5076791;28;20290;-69
2021/01/15 10:46:31;;;;;;;8.85;4.97;;;0.80;99.90;;;;;;5076223;28;20203;-69
2021/01/15 10:48:58;;;;;;;6.72;5.18;;;1.00;99.90;;;;;;5076057;28;20222;-69
2021/01/15 10:51:24;;;;;;;9.38;4.13;;;0.90;99.90;;;;;;5076753;28;20207;-69
2021/01/15 10:53:52;;;;;;;10.85;4.95;;;0.80;99.90;;;;;;5076149;28;20203;-69
2021/01/15 10:56:18;;;;;;;9.27;5.65;;;0.90;99.90;;;;;;5075575;28;20293;-69
2021/01/15 10:58:44;;;;;;;8.10;4.25;;;1.10;99.90;;;;;;5075504;28;20201;-69
2021/01/15 11:01:10;;;;;;;11.20;5.82;;;1.20;99.90;;;;;;5075713;28;20384;-69
2021/01/15 11:03:37;;;;;;;6.90;4.57;;;1.20;99.90;;;;;;5075420;28;20289;-69
2021/01/15 11:06:03;;;;;;;15.10;3.97;;;1.10;99.90;;;;;;5075336;28;20297;-69
2021/01/15 11:08:31;;;;;;;10.30;5.63;;;1.00;99.90;;;;;;5075740;28;20237;-69
2021/01/15 11:10:59;;;;;;;12.70;5.28;;;1.10;99.90;;;;;;5075157;28;20223;-70
2021/01/15 11:13:25;;;;;;;11.20;6.07;;;1.00;99.90;;;;;;5075277;28;20210;-69
2021/01/15 11:15:51;;;;;;;8.10;5.32;;;0.90;99.90;;;;;;5074852;28;20576;-69
2021/01/15 11:18:17;;;;;;;10.73;4.88;;;0.80;99.90;;;;;;5075177;28;20716;-68
2021/01/15 11:20:44;;;;;;;10.45;4.80;;;0.90;99.90;;;;;;5075592;28;20355;-69
2021/01/15 11:23:13;;;;;;;11.52;5.47;;;1.00;99.90;;;;;;5075468;28;20206;-69
2021/01/15 11:25:42;;;;;;;11.68;5.95;;;1.10;99.90;;;;;;5075269;28;20310;-70
2021/01/15 11:28:10;;;;;;;11.45;5.47;;;1.00;99.90;;;;;;5074684;28;20546;-69
2021/01/15 11:30:36;;;;;;;11.25;5.88;;;1.00;99.90;;;;;;5075156;28;20564;-69
2021/01/15 11:33:03;;;;;;;10.70;5.80;;;1.20;99.90;;;;;;5075074;28;20199;-69
2021/01/15 11:35:30;;;;;;;12.05;5.72;;;1.20;99.90;;;;;;5074986;28;20301;-70
2021/01/15 11:37:58;;;;;;;9.60;4.53;;;1.40;99.90;;;;;;5075194;28;20206;-69
2021/01/15 11:40:25;;;;;;;8.35;4.53;;;1.40;99.90;;;;;;5074704;28;20223;-69
2021/01/15 11:42:55;;;;;;;9.95;4.75;;;1.40;99.90;;;;;;5075003;28;20293;-69
2021/01/15 11:45:23;;;;;;;10.65;5.22;;;1.40;99.90;;;;;;5074963;28;20202;-69
2021/01/15 11:47:53;;;;;;;9.55;4.90;;;1.40;99.90;;;;;;5074402;28;20260;-69
2021/01/15 11:50:20;;;;;;;8.82;4.50;;;1.30;99.90;;;;;;5073185;28;20287;-69
2021/01/15 11:52:47;;;;;;;9.57;5.03;;;1.30;99.90;;;;;;5075313;28;20220;-69
2021/01/15 11:55:14;;;;;;;15.68;5.80;;;1.40;99.90;;;;;;5075180;28;20207;-69
2021/01/15 11:57:40;;;;;;;9.40;4.80;;;1.50;99.90;;;;;;5074798;28;20207;-69
2021/01/15 12:00:07;;;;;;;7.05;3.67;;;1.60;99.90;;;;;;5074497;28;20245;-69
2021/01/15 12:02:35;;;;;;;7.30;5.45;;;1.70;99.90;;;;;;5075028;28;20203;-69
2021/01/15 12:05:01;;;;;;;7.63;4.53;;;1.70;99.90;;;;;;5074861;28;20700;-69
2021/01/15 12:07:30;;;;;;;13.18;6.78;;;1.70;99.90;;;;;;5074379;28;20302;-69
2021/01/15 12:09:56;;;;;;;8.88;4.72;;;1.60;99.90;;;;;;5074575;28;20234;-69
2021/01/15 12:12:23;;;;;;;8.25;4.35;;;1.50;99.90;;;;;;5074809;28;20199;-69
2021/01/15 12:14:49;;;;;;;9.00;5.40;;;1.60;99.90;;;;;;5074636;28;20203;-69
2021/01/15 12:17:15;;;;;;;9.77;4.70;;;1.80;99.90;;;;;;5074326;28;20668;-69
2021/01/15 12:19:42;;;;;;;13.75;6.28;;;1.90;99.90;;;;;;5074679;28;20305;-69
2021/01/15 12:22:09;;;;;;;13.38;7.25;;;1.80;99.90;;;;;;5074410;28;20211;-69
2021/01/15 12:24:35;;;;;;;10.85;5.30;;;1.80;99.90;;;;;;5074239;28;20301;-69
2021/01/15 12:27:02;;;;;;;9.25;5.25;;;1.80;99.90;;;;;;5073250;28;20313;-69
2021/01/15 12:29:29;;;;;;;10.10;5.28;;;1.90;99.90;;;;;;5074561;28;20692;-69
2021/01/15 12:31:56;;;;;;;7.22;3.97;;;2.00;99.90;;;;;;5074843;28;20203;-69
2021/01/15 12:34:22;;;;;;;9.38;5.50;;;2.10;99.90;;;;;;5074535;28;20202;-70
2021/01/15 12:36:49;;;;;;;10.15;4.32;;;2.30;99.90;;;;;;5074093;28;20302;-69
2021/01/15 12:39:16;;;;;;;9.63;5.32;;;2.50;99.90;;;;;;5073896;28;20290;-69
2021/01/15 12:41:42;;;;;;;7.80;4.30;;;2.50;99.90;;;;;;5074436;28;20203;-69
2021/01/15 12:44:08;;;;;;;8.90;5.38;;;2.80;99.90;;;;;;5074448;28;20297;-69
2021/01/15 12:46:35;;;;;;;10.82;5.85;;;3.10;99.90;;;;;;5074628;28;20638;-69
2021/01/15 12:49:01;;;;;;;10.90;5.30;;;3.40;99.90;;;;;;5074428;28;20219;-70
2021/01/15 12:51:27;;;;;;;9.57;5.45;;;3.50;99.90;;;;;;5075741;28;20207;-69
2021/01/15 12:53:54;;;;;;;11.30;5.55;;;3.80;99.90;;;;;;5075665;28;20232;-69
2021/01/15 12:56:21;;;;;;;9.15;4.93;;;4.10;99.10;;;;;;5075361;28;20199;-69
2021/01/15 12:58:47;;;;;;;11.20;5.50;;;4.20;99.10;;;;;;5075365;28;20281;-69
2021/01/15 13:01:13;;;;;;;7.05;4.35;;;4.40;98.90;;;;;;5075447;28;20218;-69
2021/01/15 13:03:40;;;;;;;8.13;5.40;;;4.10;97.70;;;;;;5075038;28;20649;-69